PWSweather.com
Personal Weather Stations
Station Observations
PD3RFR
Maarssenbroek, MaarssenNL 3607 KV

MaarssenbroekMaarssenNL 3607 KV

Lat: 52.1385564, Lon: 5.0196136

Elevation: 18

Station Type: Alecto WS-4000

Latest ConditionsUpdated 9:40:05 PM GMT+01:01 Monday, Sep 23, 2019
Currently Today's Max Today's Min Today's Average
Temperature 57.7°F14.3°C 75.9°F24.4°C 57.7°F14.3°C 65.0°F18.3°C
Dew Point 56.3°F13.5°C 73.5°F23.1°C 48.3°F9.1°C 58.9°F14.9°C
Winds Calm Calm 10.4 mph -16.7 kmh - - 0.6 mph 1.0 kmh
Wind Gusts -- 28.9 mph46.5 kmh - -
Humidity 95% 99% 10% 81%
Pressure 29.62 in1003.0 mb 29.62 in1003.0 mb 29.46 in997.6 mb -
Precipitation - 0.08 in2.0 mm - -
Hour Temp Dew Point Humidity Winds Wind Gusts Pressure Precip Precip Rate Daily Precip Total
09:40 PM 57.7°F14.3°C 56.3°F13.5°C 95% Calm Calm -- 29.62 in1003.0 mb 0.00 in0.0 mm 0.00 in0.0 mm 0.08 in2.0 mm
09:30 PM 57.7°F14.3°C 56.3°F13.5°C 95% Calm Calm -- 29.62 in1003.0 mb 0.00 in0.0 mm 0.00 in0.0 mm 0.08 in2.0 mm
09:20 PM 57.9°F14.4°C 53.4°F11.9°C 85% Calm Calm -- 29.62 in1003.0 mb 0.00 in0.0 mm 0.00 in0.0 mm 0.08 in2.0 mm
09:10 PM 57.9°F14.4°C 53.4°F11.9°C 85% Calm Calm -- 29.62 in1003.0 mb 0.00 in0.0 mm 0.00 in0.0 mm 0.08 in2.0 mm
09:00 PM 58.3°F14.6°C 53.5°F11.9°C 84% Calm Calm -- 29.62 in1003.0 mb 0.00 in0.0 mm 0.00 in0.0 mm 0.08 in2.0 mm
08:50 PM 58.3°F14.6°C 52.5°F11.4°C 81% Calm Calm -- 29.62 in1003.0 mb 0.00 in0.0 mm 0.00 in0.0 mm 0.08 in2.0 mm
08:40 PM 58.3°F14.6°C 52.5°F11.4°C 81% Calm Calm -- 29.62 in1003.0 mb 0.00 in0.0 mm 0.00 in0.0 mm 0.08 in2.0 mm
08:30 PM 58.5°F14.7°C 52.0°F11.1°C 79% Calm Calm -- 29.62 in1003.0 mb 0.00 in0.0 mm 0.00 in0.0 mm 0.08 in2.0 mm
08:20 PM 59.0°F15.0°C 52.2°F11.2°C 78% Calm Calm -- 29.62 in1003.0 mb 0.00 in0.0 mm 0.00 in0.0 mm 0.08 in2.0 mm
08:10 PM 59.4°F15.2°C 52.2°F11.2°C 77% Calm Calm -- 29.62 in1003.0 mb 0.00 in0.0 mm 0.00 in0.0 mm 0.08 in2.0 mm
08:00 PM 59.7°F15.4°C 52.2°F11.2°C 76% Calm Calm -- 29.62 in1003.0 mb 0.00 in0.0 mm 0.00 in0.0 mm 0.08 in2.0 mm
07:50 PM 60.1°F15.6°C 51.4°F10.8°C 73% Calm Calm -- 29.62 in1003.0 mb 0.00 in0.0 mm 0.00 in0.0 mm 0.08 in2.0 mm
07:40 PM 60.8°F16.0°C 50.6°F10.3°C 69% Calm Calm -- 29.62 in1003.0 mb 0.00 in0.0 mm 0.00 in0.0 mm 0.08 in2.0 mm
07:30 PM 60.8°F16.0°C 50.6°F10.3°C 69% Calm Calm -- 29.62 in1003.0 mb 0.00 in0.0 mm 0.00 in0.0 mm 0.08 in2.0 mm
07:20 PM 61.3°F16.3°C 50.7°F10.4°C 68% Calm Calm -- 29.61 in1002.7 mb 0.00 in0.0 mm 0.00 in0.0 mm 0.08 in2.0 mm
07:10 PM 61.9°F16.6°C 50.4°F10.2°C 66% Calm Calm -- 29.61 in1002.7 mb 0.00 in0.0 mm 0.00 in0.0 mm 0.08 in2.0 mm
07:00 PM 63.0°F17.2°C 49.8°F9.9°C 62% Calm Calm -- 29.61 in1002.7 mb 0.00 in0.0 mm 0.00 in0.0 mm 0.08 in2.0 mm
06:50 PM 63.3°F17.4°C 49.7°F9.8°C 61% Calm Calm -- 29.61 in1002.7 mb 0.00 in0.0 mm 0.00 in0.0 mm 0.08 in2.0 mm
06:40 PM 64.8°F18.2°C 49.7°F9.8°C 58% Calm Calm -- 29.61 in1002.7 mb 0.00 in0.0 mm 0.00 in0.0 mm 0.08 in2.0 mm
06:30 PM 65.7°F18.7°C 50.0°F10.0°C 57% Calm Calm 1.6 mph2.6 kmh 29.61 in1002.7 mb 0.00 in0.0 mm 0.00 in0.0 mm 0.08 in2.0 mm
06:20 PM 66.4°F19.1°C 49.7°F9.8°C 55% Calm Calm 0.7 mph1.1 kmh 29.61 in1002.7 mb 0.00 in0.0 mm 0.00 in0.0 mm 0.08 in2.0 mm
06:10 PM 66.7°F19.3°C 49.6°F9.8°C 54% Calm Calm 0.7 mph1.1 kmh 29.61 in1002.7 mb 0.00 in0.0 mm 0.00 in0.0 mm 0.08 in2.0 mm
06:00 PM 67.1°F19.5°C 49.4°F9.7°C 53% Calm Calm 1.6 mph2.6 kmh 29.61 in1002.7 mb 0.00 in0.0 mm 0.00 in0.0 mm 0.08 in2.0 mm
05:50 PM 67.8°F19.9°C 49.1°F9.5°C 51% 0.1 mph SSE0.2 kmh SSE 2.2 mph3.5 kmh 29.61 in1002.7 mb 0.00 in0.0 mm 0.00 in0.0 mm 0.08 in2.0 mm
05:40 PM 68.9°F20.5°C 49.5°F9.7°C 50% 0.6 mph S1.0 kmh S 3.8 mph6.1 kmh 29.61 in1002.7 mb 0.00 in0.0 mm 0.00 in0.0 mm 0.08 in2.0 mm
05:30 PM 68.5°F20.3°C 49.7°F9.8°C 51% 0.5 mph E0.8 kmh E 3.1 mph5.0 kmh 29.61 in1002.7 mb 0.00 in0.0 mm 0.00 in0.0 mm 0.08 in2.0 mm
05:20 PM 68.7°F20.4°C 49.9°F9.9°C 51% 0.5 mph SE0.8 kmh SE 3.1 mph5.0 kmh 29.60 in1002.4 mb 0.00 in0.0 mm 0.00 in0.0 mm 0.08 in2.0 mm
05:10 PM 69.1°F20.6°C 49.1°F9.5°C 49% 0.6 mph S1.0 kmh S 2.2 mph3.5 kmh 29.60 in1002.4 mb 0.00 in0.0 mm 0.00 in0.0 mm 0.08 in2.0 mm
05:00 PM 69.3°F20.7°C 48.8°F9.3°C 48% 1.3 mph S2.1 kmh S 6.0 mph9.7 kmh 29.60 in1002.4 mb 0.00 in0.0 mm 0.00 in0.0 mm 0.08 in2.0 mm
04:50 PM 70.7°F21.5°C 48.3°F9.1°C 45% 0.9 mph S1.4 kmh S 6.0 mph9.7 kmh 29.60 in1002.4 mb 0.00 in0.0 mm 0.00 in0.0 mm 0.08 in2.0 mm
04:40 PM 73.2°F22.9°C 48.8°F9.3°C 42% 0.8 mph E1.3 kmh E 5.4 mph8.7 kmh 29.60 in1002.4 mb 0.00 in0.0 mm 0.00 in0.0 mm 0.08 in2.0 mm
04:30 PM 74.7°F23.7°C 48.8°F9.3°C 40% 1.2 mph SE1.9 kmh SE 6.0 mph9.7 kmh 29.60 in1002.4 mb 0.00 in0.0 mm 0.00 in0.0 mm 0.08 in2.0 mm
04:20 PM 75.0°F23.9°C 51.7°F10.9°C 44% 0.7 mph SE1.1 kmh SE 3.8 mph6.1 kmh 29.60 in1002.4 mb 0.00 in0.0 mm 0.00 in0.0 mm 0.08 in2.0 mm
04:10 PM 75.2°F24.0°C 51.8°F11.0°C 44% 1.0 mph SE1.6 kmh SE 6.0 mph9.7 kmh 29.60 in1002.4 mb 0.00 in0.0 mm 0.00 in0.0 mm 0.08 in2.0 mm
04:00 PM 75.9°F24.4°C 54.9°F12.7°C 48% 1.3 mph NE2.1 kmh NE 6.9 mph11.1 kmh 29.59 in1002.0 mb 0.00 in0.0 mm 0.00 in0.0 mm 0.08 in2.0 mm
03:50 PM 75.4°F24.1°C 54.9°F12.7°C 49% 1.5 mph SSE2.4 kmh SSE 6.9 mph11.1 kmh 29.60 in1002.4 mb 0.00 in0.0 mm 0.00 in0.0 mm 0.08 in2.0 mm
03:40 PM 75.4°F24.1°C 57.6°F14.2°C 54% 1.6 mph E2.6 kmh E 6.9 mph11.1 kmh 29.60 in1002.4 mb 0.00 in0.0 mm 0.00 in0.0 mm 0.08 in2.0 mm
03:30 PM 74.8°F23.8°C 59.1°F15.1°C 58% 0.6 mph SSW1.0 kmh SSW 3.8 mph6.1 kmh 29.59 in1002.0 mb 0.00 in0.0 mm 0.00 in0.0 mm 0.08 in2.0 mm
03:20 PM 71.8°F22.1°C 59.4°F15.2°C 65% 0.5 mph S0.8 kmh S 3.8 mph6.1 kmh 29.60 in1002.4 mb 0.00 in0.0 mm 0.00 in0.0 mm 0.08 in2.0 mm
03:10 PM 69.8°F21.0°C 59.6°F15.3°C 70% Calm Calm 3.1 mph5.0 kmh 29.60 in1002.4 mb 0.00 in0.0 mm 0.00 in0.0 mm 0.08 in2.0 mm
03:00 PM 66.7°F19.3°C 58.6°F14.8°C 75% 0.1 mph E0.2 kmh E 2.2 mph3.5 kmh 29.59 in1002.0 mb 0.00 in0.0 mm 0.00 in0.0 mm 0.08 in2.0 mm
02:50 PM 66.0°F18.9°C 58.3°F14.6°C 76% 0.1 mph NNE0.2 kmh NNE 2.2 mph3.5 kmh 29.60 in1002.4 mb 0.00 in0.0 mm 0.00 in0.0 mm 0.08 in2.0 mm
02:40 PM 66.0°F18.9°C 58.3°F14.6°C 76% 1.0 mph SE1.6 kmh SE 3.8 mph6.1 kmh 29.60 in1002.4 mb 0.00 in0.0 mm 0.00 in0.0 mm 0.08 in2.0 mm
02:30 PM 67.1°F19.5°C 59.3°F15.2°C 76% 0.9 mph W1.4 kmh W 6.0 mph9.7 kmh 29.59 in1002.0 mb 0.00 in0.0 mm 0.00 in0.0 mm 0.08 in2.0 mm
02:20 PM 67.6°F19.8°C 59.5°F15.3°C 75% 0.5 mph S0.8 kmh S 2.2 mph3.5 kmh 29.59 in1002.0 mb 0.00 in0.0 mm 0.00 in0.0 mm 0.08 in2.0 mm
02:10 PM 67.3°F19.6°C 58.4°F14.7°C 73% 1.6 mph E2.6 kmh E 6.0 mph9.7 kmh 29.59 in1002.0 mb 0.00 in0.0 mm 0.00 in0.0 mm 0.08 in2.0 mm
02:00 PM 68.0°F20.0°C 58.3°F14.6°C 71% 1.2 mph SE1.9 kmh SE 6.0 mph9.7 kmh 29.59 in1002.0 mb 0.00 in0.0 mm 0.00 in0.0 mm 0.08 in2.0 mm
01:50 PM 68.9°F20.5°C 58.3°F14.6°C 69% 0.8 mph SE1.3 kmh SE 3.8 mph6.1 kmh 29.59 in1002.0 mb 0.00 in0.0 mm 0.00 in0.0 mm 0.08 in2.0 mm
01:40 PM 68.9°F20.5°C 58.3°F14.6°C 69% 0.5 mph E0.8 kmh E 4.5 mph7.2 kmh 29.59 in1002.0 mb 0.00 in0.0 mm 0.00 in0.0 mm 0.08 in2.0 mm
01:30 PM 68.9°F20.5°C 57.9°F14.4°C 68% 1.4 mph SE2.3 kmh SE 4.5 mph7.2 kmh 29.58 in1001.7 mb 0.00 in0.0 mm 0.00 in0.0 mm 0.08 in2.0 mm
01:20 PM 69.1°F20.6°C 58.9°F14.9°C 70% 1.4 mph ESE2.3 kmh ESE 6.0 mph9.7 kmh 29.58 in1001.7 mb 0.00 in0.0 mm 0.00 in0.0 mm 0.08 in2.0 mm
01:10 PM 68.7°F20.4°C 58.6°F14.8°C 70% 3.3 mph E5.3 kmh E 6.9 mph11.1 kmh 29.58 in1001.7 mb 0.00 in0.0 mm 0.00 in0.0 mm 0.08 in2.0 mm
01:00 PM 69.3°F20.7°C 57.9°F14.4°C 67% 2.2 mph SSE3.5 kmh SSE 9.2 mph14.8 kmh 29.58 in1001.7 mb 0.00 in0.0 mm 0.00 in0.0 mm 0.08 in2.0 mm
12:50 PM 70.3°F21.3°C 58.9°F14.9°C 67% 1.1 mph ESE1.8 kmh ESE 6.0 mph9.7 kmh 29.58 in1001.7 mb 0.00 in0.0 mm 0.00 in0.0 mm 0.08 in2.0 mm
12:40 PM 70.2°F21.2°C 59.5°F15.3°C 69% 1.1 mph ESE1.8 kmh ESE 6.9 mph11.1 kmh 29.58 in1001.7 mb 0.76 in19.3 mm 0.00 in0.0 mm 0.08 in2.0 mm
12:30 PM 70.2°F21.2°C 59.9°F15.5°C 70% 0.9 mph ENE1.4 kmh ENE 6.9 mph11.1 kmh 29.58 in1001.7 mb 0.76 in19.3 mm 4.56 in115.8 mm 0.08 in2.0 mm
12:20 PM 69.1°F20.6°C 59.3°F15.2°C 71% 1.7 mph E2.7 kmh E 5.4 mph8.7 kmh 29.58 in1001.7 mb 0.00 in0.0 mm 0.00 in0.0 mm 0.08 in2.0 mm
12:10 PM 69.8°F21.0°C 58.8°F14.9°C 68% 2.3 mph SE3.7 kmh SE 6.0 mph9.7 kmh 29.57 in1001.4 mb 0.00 in0.0 mm 0.00 in0.0 mm 0.08 in2.0 mm
12:00 PM 71.1°F21.7°C 60.0°F15.6°C 68% 1.0 mph WSW1.6 kmh WSW 6.9 mph11.1 kmh 29.57 in1001.4 mb 0.00 in0.0 mm 0.00 in0.0 mm 0.08 in2.0 mm
11:50 AM 69.8°F21.0°C 60.4°F15.8°C 72% 0.7 mph NE1.1 kmh NE 3.1 mph5.0 kmh 29.57 in1001.4 mb 0.00 in0.0 mm 0.00 in0.0 mm 0.08 in2.0 mm
11:40 AM 69.4°F20.8°C 60.0°F15.6°C 72% 2.1 mph W3.4 kmh W 28.9 mph46.5 kmh 29.57 in1001.4 mb 0.00 in0.0 mm 0.00 in0.0 mm 0.08 in2.0 mm
11:30 AM 68.5°F20.3°C 61.4°F16.3°C 78% 1.5 mph W2.4 kmh W 28.9 mph46.5 kmh 29.57 in1001.4 mb 0.00 in0.0 mm 0.00 in0.0 mm 0.08 in2.0 mm
11:20 AM 68.4°F20.2°C 61.3°F16.3°C 78% 2.0 mph SW3.2 kmh SW 7.6 mph12.2 kmh 29.57 in1001.4 mb 0.00 in0.0 mm 0.00 in0.0 mm 0.08 in2.0 mm
11:10 AM 68.5°F20.3°C 63.5°F17.5°C 84% 0.1 mph SE0.2 kmh SE 4.5 mph7.2 kmh 29.57 in1001.4 mb 0.00 in0.0 mm 0.00 in0.0 mm 0.08 in2.0 mm
11:00 AM 68.2°F20.1°C 64.5°F18.1°C 88% 1.0 mph SE1.6 kmh SE 5.4 mph8.7 kmh 29.57 in1001.4 mb 0.00 in0.0 mm 0.00 in0.0 mm 0.08 in2.0 mm
10:50 AM 67.8°F19.9°C 64.5°F18.1°C 89% 1.3 mph E2.1 kmh E 5.4 mph8.7 kmh 29.57 in1001.4 mb 0.00 in0.0 mm 0.00 in0.0 mm 0.08 in2.0 mm
10:40 AM 68.0°F20.0°C 65.9°F18.8°C 93% 1.3 mph ESE2.1 kmh ESE 5.4 mph8.7 kmh 29.58 in1001.7 mb 0.00 in0.0 mm 0.00 in0.0 mm 0.08 in2.0 mm
10:30 AM 67.3°F19.6°C 67.0°F19.4°C 99% 1.0 mph ENE1.6 kmh ENE 4.5 mph7.2 kmh 29.58 in1001.7 mb 0.00 in0.0 mm 0.00 in0.0 mm 0.08 in2.0 mm
10:20 AM 66.2°F19.0°C 65.9°F18.8°C 99% 1.0 mph ESE1.6 kmh ESE 4.5 mph7.2 kmh 29.58 in1001.7 mb 0.00 in0.0 mm 0.00 in0.0 mm 0.08 in2.0 mm
10:10 AM 66.2°F19.0°C 65.9°F18.8°C 99% 1.1 mph S1.8 kmh S 4.5 mph7.2 kmh 29.57 in1001.4 mb 0.00 in0.0 mm 0.00 in0.0 mm 0.08 in2.0 mm
10:00 AM 65.8°F18.8°C 65.6°F18.7°C 99% 0.9 mph ESE1.4 kmh ESE 3.8 mph6.1 kmh 29.58 in1001.7 mb 0.00 in0.0 mm 0.00 in0.0 mm 0.08 in2.0 mm
09:50 AM 65.5°F18.6°C 65.2°F18.4°C 99% 0.7 mph S1.1 kmh S 3.8 mph6.1 kmh 29.58 in1001.7 mb 0.00 in0.0 mm 0.00 in0.0 mm 0.08 in2.0 mm
09:40 AM 65.1°F18.4°C 64.9°F18.3°C 99% 0.8 mph SSE1.3 kmh SSE 3.8 mph6.1 kmh 29.58 in1001.7 mb 0.00 in0.0 mm 0.00 in0.0 mm 0.08 in2.0 mm
09:30 AM 64.8°F18.2°C 64.5°F18.1°C 99% 0.9 mph S1.4 kmh S 5.4 mph8.7 kmh 29.57 in1001.4 mb 0.00 in0.0 mm 0.00 in0.0 mm 0.08 in2.0 mm
09:20 AM 64.6°F18.1°C 64.3°F17.9°C 99% 0.5 mph ESE0.8 kmh ESE 3.1 mph5.0 kmh 29.57 in1001.4 mb 0.00 in0.0 mm 0.00 in0.0 mm 0.08 in2.0 mm
09:10 AM 64.2°F17.9°C 64.0°F17.8°C 99% 0.4 mph SW0.6 kmh SW 3.1 mph5.0 kmh 29.57 in1001.4 mb 0.00 in0.0 mm 0.00 in0.0 mm 0.08 in2.0 mm
09:00 AM 63.9°F17.7°C 63.6°F17.6°C 99% 0.7 mph E1.1 kmh E 3.1 mph5.0 kmh 29.57 in1001.4 mb 0.00 in0.0 mm 0.00 in0.0 mm 0.08 in2.0 mm
08:50 AM 63.3°F17.4°C 63.1°F17.3°C 99% 0.8 mph SSE1.3 kmh SSE 3.1 mph5.0 kmh 29.57 in1001.4 mb 0.00 in0.0 mm 0.00 in0.0 mm 0.08 in2.0 mm
08:40 AM 63.1°F17.3°C 62.9°F17.2°C 99% 0.6 mph SW1.0 kmh SW 4.5 mph7.2 kmh 29.56 in1001.0 mb 0.00 in0.0 mm 0.00 in0.0 mm 0.08 in2.0 mm
08:30 AM 62.8°F17.1°C 62.5°F16.9°C 99% Calm Calm 0.7 mph1.1 kmh 29.56 in1001.0 mb 0.00 in0.0 mm 0.00 in0.0 mm 0.08 in2.0 mm
08:20 AM 62.4°F16.9°C 62.2°F16.8°C 99% 0.6 mph WSW1.0 kmh WSW 2.2 mph3.5 kmh 29.55 in1000.7 mb 0.00 in0.0 mm 0.00 in0.0 mm 0.08 in2.0 mm
08:10 AM 62.4°F16.9°C 62.2°F16.8°C 99% 0.8 mph ENE1.3 kmh ENE 3.8 mph6.1 kmh 29.55 in1000.7 mb 0.00 in0.0 mm 0.00 in0.0 mm 0.08 in2.0 mm
08:00 AM 62.2°F16.8°C 62.0°F16.7°C 99% 0.5 mph E0.8 kmh E 2.2 mph3.5 kmh 29.55 in1000.7 mb 0.00 in0.0 mm 0.00 in0.0 mm 0.08 in2.0 mm
07:50 AM 62.2°F16.8°C 62.0°F16.7°C 99% Calm Calm 1.6 mph2.6 kmh 29.55 in1000.7 mb 0.00 in0.0 mm 0.00 in0.0 mm 0.08 in2.0 mm
07:40 AM 62.1°F16.7°C 61.8°F16.6°C 99% Calm Calm 1.6 mph2.6 kmh 29.55 in1000.7 mb 0.00 in0.0 mm 0.00 in0.0 mm 0.08 in2.0 mm
07:30 AM 62.1°F16.7°C 61.8°F16.6°C 99% 0.1 mph WSW0.2 kmh WSW 1.6 mph2.6 kmh 29.54 in1000.3 mb 0.00 in0.0 mm 0.00 in0.0 mm 0.08 in2.0 mm
07:20 AM 61.9°F16.6°C 61.6°F16.4°C 99% 0.7 mph WSW1.1 kmh WSW 1.6 mph2.6 kmh 29.54 in1000.3 mb 0.00 in0.0 mm 0.00 in0.0 mm 0.08 in2.0 mm
07:10 AM 61.7°F16.5°C 61.4°F16.3°C 99% Calm Calm 3.1 mph5.0 kmh 29.53 in1000.0 mb 0.00 in0.0 mm 0.00 in0.0 mm 0.08 in2.0 mm
07:00 AM 61.7°F16.5°C 61.4°F16.3°C 99% Calm Calm 3.1 mph5.0 kmh 29.53 in1000.0 mb 0.00 in0.0 mm 0.00 in0.0 mm 0.08 in2.0 mm
06:50 AM 61.7°F16.5°C 61.4°F16.3°C 99% Calm Calm 3.1 mph5.0 kmh 29.53 in1000.0 mb 0.00 in0.0 mm 0.00 in0.0 mm 0.08 in2.0 mm
06:40 AM 61.7°F16.5°C 61.4°F16.3°C 99% 0.3 mph NW0.5 kmh NW 4.5 mph7.2 kmh 29.53 in1000.0 mb 0.00 in0.0 mm 0.00 in0.0 mm 0.08 in2.0 mm
06:30 AM 61.7°F16.5°C 61.4°F16.3°C 99% 0.1 mph SSE0.2 kmh SSE 3.1 mph5.0 kmh 29.52 in999.7 mb 0.00 in0.0 mm 0.00 in0.0 mm 0.08 in2.0 mm
06:20 AM 61.7°F16.5°C 61.4°F16.3°C 99% 0.4 mph E0.6 kmh E 2.2 mph3.5 kmh 29.53 in1000.0 mb 0.00 in0.0 mm 0.00 in0.0 mm 0.08 in2.0 mm
06:10 AM 61.9°F16.6°C 61.6°F16.4°C 99% 0.7 mph SE1.1 kmh SE 2.2 mph3.5 kmh 29.52 in999.7 mb 0.00 in0.0 mm 0.00 in0.0 mm 0.08 in2.0 mm
06:00 AM 61.7°F16.5°C 61.4°F16.3°C 99% Calm Calm 2.2 mph3.5 kmh 29.51 in999.3 mb 0.00 in0.0 mm 0.00 in0.0 mm 0.08 in2.0 mm
05:50 AM 61.7°F16.5°C 61.4°F16.3°C 99% Calm Calm 0.7 mph1.1 kmh 29.51 in999.3 mb 0.01 in0.3 mm 0.00 in0.0 mm 0.08 in2.0 mm
05:40 AM 61.7°F16.5°C 61.4°F16.3°C 99% Calm Calm 0.7 mph1.1 kmh 29.51 in999.3 mb 0.01 in0.3 mm 0.00 in0.0 mm 0.08 in2.0 mm
05:30 AM 61.9°F16.6°C 61.6°F16.4°C 67% 10.4 mph NW16.7 kmh NW 25.1 mph40.4 kmh 29.51 in999.3 mb 0.01 in0.3 mm 0.00 in0.0 mm 0.08 in2.0 mm
05:20 AM 61.9°F16.6°C 61.6°F16.4°C 67% 1.5 mph NW2.4 kmh NW 25.1 mph40.4 kmh 29.51 in999.3 mb 0.01 in0.3 mm 0.00 in0.0 mm 0.08 in2.0 mm
05:10 AM 61.9°F16.6°C 61.6°F16.4°C 99% 0.3 mph S0.5 kmh S 3.1 mph5.0 kmh 29.51 in999.3 mb 0.01 in0.3 mm 0.00 in0.0 mm 0.08 in2.0 mm
05:00 AM 62.1°F16.7°C 61.8°F16.6°C 99% Calm Calm 0.7 mph1.1 kmh 29.51 in999.3 mb 0.02 in0.5 mm 0.01 in0.3 mm 0.08 in2.0 mm
04:50 AM 62.1°F16.7°C 61.8°F16.6°C 99% Calm Calm 1.6 mph2.6 kmh 29.51 in999.3 mb 0.01 in0.3 mm 0.00 in0.0 mm 0.07 in1.8 mm
04:40 AM 62.1°F16.7°C 61.8°F16.6°C 99% Calm Calm 1.6 mph2.6 kmh 29.51 in999.3 mb 0.01 in0.3 mm 0.06 in1.5 mm 0.07 in1.8 mm
04:30 AM 62.1°F16.7°C 61.8°F16.6°C 99% Calm Calm 1.6 mph2.6 kmh 29.51 in999.3 mb 0.00 in0.0 mm 0.00 in0.0 mm 0.07 in1.8 mm
04:20 AM 62.1°F16.7°C 61.8°F16.6°C 99% Calm Calm 3.1 mph5.0 kmh 29.52 in999.7 mb 0.00 in0.0 mm 0.00 in0.0 mm 0.07 in1.8 mm
04:10 AM 62.1°F16.7°C 61.8°F16.6°C 99% 0.4 mph SSW0.6 kmh SSW 3.1 mph5.0 kmh 29.51 in999.3 mb 0.01 in0.3 mm 0.06 in1.5 mm 0.07 in1.8 mm
04:00 AM 62.1°F16.7°C 61.8°F16.6°C 99% 0.7 mph SE1.1 kmh SE 3.1 mph5.0 kmh 29.51 in999.3 mb 0.00 in0.0 mm 0.00 in0.0 mm 0.06 in1.5 mm
03:50 AM 62.1°F16.7°C 61.8°F16.6°C 99% 0.5 mph WSW0.8 kmh WSW 3.8 mph6.1 kmh 29.51 in999.3 mb 3.40 in86.4 mm 20.40 in518.2 mm 0.06 in1.5 mm
03:40 AM 62.2°F16.8°C 62.0°F16.7°C 99% Calm Calm 1.6 mph2.6 kmh 29.50 in999.0 mb 0.00 in0.0 mm 0.00 in0.0 mm 0.06 in1.5 mm
03:30 AM 62.2°F16.8°C 62.0°F16.7°C 10% 0.1 mph WSW0.2 kmh WSW 2.2 mph3.5 kmh 29.50 in999.0 mb 0.00 in0.0 mm 0.00 in0.0 mm 0.06 in1.5 mm
03:20 AM 62.2°F16.8°C 62.0°F16.7°C 10% 0.1 mph WSW0.2 kmh WSW 2.2 mph3.5 kmh 29.50 in999.0 mb 0.00 in0.0 mm 0.00 in0.0 mm 0.06 in1.5 mm
03:10 AM 62.2°F16.8°C 62.0°F16.7°C 99% Calm Calm 2.2 mph3.5 kmh 29.50 in999.0 mb 0.00 in0.0 mm 0.00 in0.0 mm 0.06 in1.5 mm
03:00 AM 62.2°F16.8°C 62.0°F16.7°C 99% 0.6 mph E1.0 kmh E 2.2 mph3.5 kmh 29.50 in999.0 mb 0.00 in0.0 mm 0.00 in0.0 mm 0.06 in1.5 mm
02:50 AM 73.8°F23.2°C 73.5°F23.1°C 99% Calm Calm 1.6 mph2.6 kmh 29.49 in998.6 mb 0.00 in0.0 mm 0.00 in0.0 mm 0.06 in1.5 mm
02:40 AM 62.2°F16.8°C 62.0°F16.7°C 99% 0.3 mph W0.5 kmh W 3.1 mph5.0 kmh 29.49 in998.6 mb 0.00 in0.0 mm 0.00 in0.0 mm 0.06 in1.5 mm
02:30 AM 62.4°F16.9°C 62.2°F16.8°C 99% Calm Calm 1.6 mph2.6 kmh 29.49 in998.6 mb 0.00 in0.0 mm 0.00 in0.0 mm 0.06 in1.5 mm
02:20 AM 62.4°F16.9°C 62.2°F16.8°C 99% Calm Calm 0.7 mph1.1 kmh 29.49 in998.6 mb 0.00 in0.0 mm 0.00 in0.0 mm 0.06 in1.5 mm
02:10 AM 62.6°F17.0°C 62.3°F16.8°C 99% Calm Calm 3.1 mph5.0 kmh 29.49 in998.6 mb 0.00 in0.0 mm 0.00 in0.0 mm 0.06 in1.5 mm
02:00 AM 62.6°F17.0°C 62.3°F16.8°C 99% 0.1 mph E0.2 kmh E 3.1 mph5.0 kmh 29.49 in998.6 mb 0.00 in0.0 mm 0.00 in0.0 mm 0.06 in1.5 mm
01:50 AM 62.6°F17.0°C 62.3°F16.8°C 99% Calm Calm 2.2 mph3.5 kmh 29.48 in998.3 mb 0.00 in0.0 mm 0.00 in0.0 mm 0.06 in1.5 mm
01:40 AM 62.6°F17.0°C 62.3°F16.8°C 99% Calm Calm 2.2 mph3.5 kmh 29.49 in998.6 mb 0.00 in0.0 mm 0.00 in0.0 mm 0.06 in1.5 mm
01:30 AM 62.6°F17.0°C 62.3°F16.8°C 99% 0.5 mph E0.8 kmh E 2.2 mph3.5 kmh 29.48 in998.3 mb 0.00 in0.0 mm 0.00 in0.0 mm 0.06 in1.5 mm
01:20 AM 62.6°F17.0°C 62.3°F16.8°C 99% 0.5 mph SE0.8 kmh SE 2.2 mph3.5 kmh 29.48 in998.3 mb 0.00 in0.0 mm 0.00 in0.0 mm 0.06 in1.5 mm
01:10 AM 62.8°F17.1°C 62.5°F16.9°C 99% 0.4 mph ESE0.6 kmh ESE 2.2 mph3.5 kmh 29.49 in998.6 mb 0.00 in0.0 mm 0.00 in0.0 mm 0.06 in1.5 mm
01:00 AM 62.8°F17.1°C 62.5°F16.9°C 99% 0.9 mph ESE1.4 kmh ESE 3.8 mph6.1 kmh 29.49 in998.6 mb 0.00 in0.0 mm 0.00 in0.0 mm 0.06 in1.5 mm
12:50 AM 63.0°F17.2°C 62.7°F17.1°C 99% 1.2 mph E1.9 kmh E 4.5 mph7.2 kmh 29.49 in998.6 mb 0.00 in0.0 mm 0.00 in0.0 mm 0.06 in1.5 mm
12:40 AM 63.1°F17.3°C 62.9°F17.2°C 99% 1.3 mph NNE2.1 kmh NNE 8.3 mph13.4 kmh 29.48 in998.3 mb 0.00 in0.0 mm 0.00 in0.0 mm 0.06 in1.5 mm
12:30 AM 63.1°F17.3°C 62.9°F17.2°C 99% 1.0 mph E1.6 kmh E 8.3 mph13.4 kmh 29.48 in998.3 mb 0.00 in0.0 mm 0.00 in0.0 mm 0.06 in1.5 mm
12:20 AM 63.3°F17.4°C 63.1°F17.3°C 99% 0.5 mph SE0.8 kmh SE 3.1 mph5.0 kmh 29.48 in998.3 mb 0.00 in0.0 mm 0.00 in0.0 mm 0.06 in1.5 mm
12:10 AM 63.0°F17.2°C 62.7°F17.1°C 99% Calm Calm 0.7 mph1.1 kmh 29.47 in998.0 mb 0.06 in1.5 mm 0.00 in0.0 mm 0.06 in1.5 mm
12:00 AM 63.0°F17.2°C 62.7°F17.1°C 99% Calm Calm 0.7 mph1.1 kmh 29.46 in997.6 mb 0.06 in1.5 mm 0.00 in0.0 mm 0.06 in1.5 mm